createdAt,value
2019-03-23T00:02:12.724Z,62.00
2019-03-23T00:04:42.865Z,62.20
2019-03-23T00:07:13.031Z,62.10
2019-03-23T00:09:43.326Z,62.20
2019-03-23T00:12:13.528Z,62.30
2019-03-23T00:14:43.632Z,62.50
2019-03-23T00:17:13.830Z,62.40
2019-03-23T00:19:46.232Z,62.40
2019-03-23T00:22:17.493Z,62.40
2019-03-23T00:24:47.661Z,62.40
2019-03-23T00:27:17.766Z,62.50
2019-03-23T00:29:47.911Z,62.60
2019-03-23T00:32:17.936Z,62.70
2019-03-23T00:34:48.145Z,62.60
2019-03-23T00:37:18.272Z,62.80
2019-03-23T00:39:48.357Z,62.90
2019-03-23T00:42:18.539Z,62.90
2019-03-23T00:44:51.731Z,62.80
2019-03-23T00:47:21.852Z,62.80
2019-03-23T00:49:52.059Z,63.60
2019-03-23T00:52:22.142Z,62.90
2019-03-23T00:54:52.186Z,62.90
2019-03-23T00:57:22.457Z,62.90
2019-03-23T00:59:52.505Z,62.90
2019-03-23T01:02:22.749Z,63.60
2019-03-23T01:04:52.949Z,63.00
2019-03-23T01:07:24.327Z,63.00
2019-03-23T01:09:55.695Z,62.90
2019-03-23T01:12:25.920Z,63.00
2019-03-23T01:14:56.972Z,63.10
2019-03-23T01:17:27.177Z,63.00
2019-03-23T01:19:57.599Z,63.20
2019-03-23T01:22:27.880Z,63.30
2019-03-23T01:24:57.990Z,63.10
2019-03-23T01:27:28.110Z,63.20
2019-03-23T01:29:58.200Z,63.20
2019-03-23T01:32:28.460Z,63.10
2019-03-23T01:34:58.572Z,63.20
2019-03-23T01:37:30.456Z,63.10
2019-03-23T01:40:02.070Z,63.10
2019-03-23T01:42:32.094Z,63.20
2019-03-23T01:45:02.092Z,64.30
2019-03-23T01:47:32.292Z,64.20
2019-03-23T01:50:02.362Z,64.30
2019-03-23T01:52:39.572Z,64.30
2019-03-23T01:55:12.526Z,64.30
2019-03-23T01:57:42.609Z,64.20
2019-03-23T02:00:13.461Z,64.20
2019-03-23T02:02:47.649Z,64.30
2019-03-23T02:05:17.828Z,64.20
2019-03-23T02:07:51.919Z,64.40
2019-03-23T02:10:22.117Z,64.40
2019-03-23T02:12:52.302Z,64.40
2019-03-23T02:15:23.694Z,64.50
2019-03-23T02:17:53.867Z,64.50
2019-03-23T02:20:23.975Z,64.40
2019-03-23T02:22:55.147Z,64.40
2019-03-23T02:25:25.299Z,64.30
2019-03-23T02:27:57.915Z,64.40
2019-03-23T02:30:30.766Z,64.30
2019-03-23T02:33:00.890Z,64.40
2019-03-23T02:35:31.078Z,64.50
2019-03-23T02:38:01.226Z,64.40
2019-03-23T02:40:31.420Z,64.60
2019-03-23T02:43:01.573Z,64.60
2019-03-23T02:45:31.728Z,64.50
2019-03-23T02:48:01.936Z,64.60
2019-03-23T02:50:32.032Z,64.50
2019-03-23T02:53:02.165Z,64.50
2019-03-23T02:55:32.270Z,64.50
2019-03-23T02:58:02.466Z,64.60
2019-03-23T03:00:32.632Z,64.70
2019-03-23T03:03:02.717Z,64.70
2019-03-23T03:05:33.957Z,64.60
2019-03-23T03:08:04.089Z,64.60
2019-03-23T03:10:40.871Z,64.60
2019-03-23T03:13:11.206Z,64.50
2019-03-23T03:15:41.362Z,64.50
2019-03-23T03:18:11.557Z,64.60
2019-03-23T03:20:41.613Z,64.60
2019-03-23T03:23:11.721Z,64.70
2019-03-23T03:25:41.779Z,64.70
2019-03-23T03:28:11.784Z,64.90
2019-03-23T03:30:41.992Z,64.70
2019-03-23T03:33:12.012Z,64.70
2019-03-23T03:35:42.148Z,64.70
2019-03-23T03:38:14.029Z,64.70
2019-03-23T03:40:44.115Z,64.70
2019-03-23T03:43:14.239Z,64.60
2019-03-23T03:45:44.364Z,64.60
2019-03-23T03:48:14.498Z,64.60
2019-03-23T03:50:44.565Z,64.60
2019-03-23T03:53:14.678Z,64.60
2019-03-23T03:55:44.800Z,64.70
2019-03-23T03:58:14.901Z,64.60
2019-03-23T04:00:45.085Z,64.50
2019-03-23T04:03:15.221Z,64.60
2019-03-23T04:05:45.239Z,64.70
2019-03-23T04:08:15.319Z,64.80
2019-03-23T04:10:45.331Z,64.80
2019-03-23T04:13:15.528Z,64.70
2019-03-23T04:15:47.946Z,64.90
2019-03-23T04:18:18.154Z,64.80
2019-03-23T04:20:50.579Z,64.80
2019-03-23T04:23:20.705Z,64.90
2019-03-23T04:25:54.768Z,64.80
2019-03-23T04:28:25.013Z,64.80
2019-03-23T04:30:57.123Z,65.00
2019-03-23T04:33:27.421Z,64.90
2019-03-23T04:35:57.595Z,65.00
2019-03-23T04:38:29.286Z,65.10
2019-03-23T04:40:59.283Z,65.00
2019-03-23T04:43:29.409Z,65.10
2019-03-23T04:45:59.465Z,65.10
2019-03-23T04:48:31.327Z,65.20
2019-03-23T04:51:01.414Z,65.30
2019-03-23T04:53:33.527Z,65.30
2019-03-23T04:56:05.219Z,65.30
2019-03-23T04:58:35.323Z,65.40
2019-03-23T05:01:05.415Z,65.50
2019-03-23T05:03:35.494Z,65.30
2019-03-23T05:06:07.406Z,65.40
2019-03-23T05:08:38.683Z,65.50
2019-03-23T05:11:10.530Z,65.40
2019-03-23T05:13:40.564Z,65.50
2019-03-23T05:16:10.637Z,65.40
2019-03-23T05:18:42.562Z,65.50
2019-03-23T05:21:31.410Z,65.50
2019-03-23T05:24:01.602Z,65.70
2019-03-23T05:26:31.709Z,66.30
2019-03-23T05:29:01.910Z,65.60
2019-03-23T05:31:31.988Z,65.60
2019-03-23T05:34:02.071Z,65.70
2019-03-23T05:36:32.166Z,65.70
2019-03-23T05:39:05.372Z,65.70
2019-03-23T05:41:35.428Z,65.70
2019-03-23T05:44:06.796Z,65.80
2019-03-23T05:46:39.065Z,65.80
2019-03-23T05:49:09.231Z,65.90
2019-03-23T05:51:39.538Z,65.70
2019-03-23T05:54:09.933Z,66.50
2019-03-23T05:56:40.057Z,65.80
2019-03-23T05:59:10.200Z,65.90
2019-03-23T06:01:42.759Z,65.80
2019-03-23T06:04:15.635Z,65.80
2019-03-23T06:06:45.744Z,65.90
2019-03-23T06:09:31.084Z,66.00
2019-03-23T06:12:00.948Z,66.00
2019-03-23T06:14:30.851Z,66.20
2019-03-23T06:17:00.751Z,66.30
2019-03-23T06:19:30.737Z,66.40
2019-03-23T06:22:00.773Z,66.40
2019-03-23T06:24:30.665Z,66.50
2019-03-23T06:27:00.669Z,66.50
2019-03-23T06:29:32.571Z,66.70
2019-03-23T06:32:02.419Z,66.70
2019-03-23T06:34:32.205Z,66.70
2019-03-23T06:37:02.041Z,67.00
2019-03-23T06:39:32.131Z,67.00
2019-03-23T06:42:03.037Z,67.00
2019-03-23T06:44:32.952Z,67.10
2019-03-23T06:47:05.343Z,67.20
2019-03-23T06:49:36.537Z,66.10
2019-03-23T06:52:09.945Z,66.30
2019-03-23T06:54:44.896Z,66.40
2019-03-23T06:57:15.057Z,66.50
2019-03-23T06:59:45.256Z,66.70
2019-03-23T07:02:15.078Z,66.50
2019-03-23T07:04:44.959Z,66.60
2019-03-23T07:07:16.634Z,66.50
2019-03-23T07:09:46.772Z,66.60
2019-03-23T07:12:16.677Z,66.60
2019-03-23T07:14:46.576Z,66.60
2019-03-23T07:17:16.509Z,66.60
2019-03-23T07:19:46.435Z,66.70
2019-03-23T07:22:16.354Z,66.70
2019-03-23T07:24:46.257Z,66.60
2019-03-23T07:27:16.110Z,66.70
2019-03-23T07:29:46.014Z,66.60
2019-03-23T07:32:16.082Z,66.70
2019-03-23T07:34:45.988Z,66.70
2019-03-23T07:37:15.976Z,66.70
2019-03-23T07:39:47.105Z,66.70
2019-03-23T07:42:17.213Z,66.50
2019-03-23T07:44:47.126Z,66.40
2019-03-23T07:47:19.780Z,66.40
2019-03-23T07:49:49.796Z,66.40
2019-03-23T07:52:21.356Z,66.30
2019-03-23T07:55:13.120Z,66.20
2019-03-23T07:57:45.636Z,66.00
2019-03-23T08:00:40.920Z,65.90
2019-03-23T08:03:10.454Z,65.70
2019-03-23T08:05:40.380Z,65.70
2019-03-23T08:08:10.357Z,65.60
2019-03-23T08:10:40.268Z,65.60
2019-03-23T08:13:16.251Z,65.30
2019-03-23T08:15:46.171Z,65.20
2019-03-23T08:18:16.089Z,65.20
2019-03-23T08:20:45.932Z,65.00
2019-03-23T08:23:15.805Z,64.70
2019-03-23T08:25:45.739Z,64.40
2019-03-23T08:28:15.797Z,64.40
2019-03-23T08:30:46.239Z,64.10
2019-03-23T08:33:18.144Z,63.70
2019-03-23T08:35:48.097Z,63.60
2019-03-23T08:38:24.093Z,63.30
2019-03-23T08:40:54.318Z,63.00
2019-03-23T08:43:26.611Z,62.70
2019-03-23T08:45:56.612Z,62.40
2019-03-23T08:48:30.096Z,62.30
2019-03-23T08:51:01.549Z,62.10
2019-03-23T08:53:32.896Z,61.80
2019-03-23T08:56:06.210Z,61.30
2019-03-23T08:58:34.207Z,61.30
2019-03-23T09:01:06.376Z,60.60
2019-03-23T09:03:39.659Z,60.50
2019-03-23T09:06:10.709Z,60.00
2019-03-23T09:08:52.887Z,59.80
2019-03-23T09:11:22.775Z,59.40
2019-03-23T09:13:52.914Z,59.10
2019-03-23T09:16:24.902Z,58.70
2019-03-23T09:18:54.906Z,58.50
2019-03-23T09:21:26.898Z,58.30
2019-03-23T09:23:57.828Z,58.00
2019-03-23T09:26:27.675Z,57.70
2019-03-23T09:28:57.514Z,57.60
2019-03-23T09:31:27.426Z,57.40
2019-03-23T09:33:57.362Z,57.10
2019-03-23T09:36:27.351Z,56.80
2019-03-23T09:38:57.614Z,56.40
2019-03-23T09:41:27.552Z,56.10
2019-03-23T09:43:57.539Z,55.90
2019-03-23T09:46:28.013Z,55.80
2019-03-23T09:48:58.263Z,55.50
2019-03-23T09:51:29.378Z,55.20
2019-03-23T09:53:59.696Z,55.00
2019-03-23T09:56:29.964Z,54.60
2019-03-23T09:59:00.179Z,54.50
2019-03-23T10:01:30.241Z,54.10
2019-03-23T10:04:00.240Z,54.60
2019-03-23T10:06:30.371Z,53.90
2019-03-23T10:09:00.324Z,53.90
2019-03-23T10:11:30.287Z,53.80
2019-03-23T10:14:03.132Z,53.60
2019-03-23T10:16:33.225Z,53.10
2019-03-23T10:19:03.659Z,52.80
2019-03-23T10:21:33.779Z,52.30
2019-03-23T10:24:03.874Z,51.20
2019-03-23T10:26:33.969Z,51.00
2019-03-23T10:29:04.088Z,50.60
2019-03-23T10:31:50.207Z,50.00
2019-03-23T10:34:20.180Z,49.90
2019-03-23T10:36:50.134Z,49.70
2019-03-23T10:39:20.117Z,49.40
2019-03-23T10:41:50.234Z,49.20
2019-03-23T10:44:20.214Z,49.10
2019-03-23T10:46:50.228Z,48.70
2019-03-23T10:49:20.383Z,48.50
2019-03-23T10:51:50.382Z,47.90
2019-03-23T10:54:20.553Z,47.80
2019-03-23T10:56:51.005Z,47.60
2019-03-23T10:59:21.052Z,47.30
2019-03-23T11:01:50.944Z,47.00
2019-03-23T11:04:21.088Z,46.70
2019-03-23T11:06:52.151Z,46.60
2019-03-23T11:09:22.167Z,46.70
2019-03-23T11:11:52.176Z,46.40
2019-03-23T11:14:22.153Z,46.00
2019-03-23T11:16:52.861Z,45.80
2019-03-23T11:19:22.841Z,46.40
2019-03-23T11:21:53.058Z,45.80
2019-03-23T11:24:23.084Z,45.90
2019-03-23T11:26:53.059Z,45.90
2019-03-23T11:29:23.501Z,45.70
2019-03-23T11:31:53.679Z,45.50
2019-03-23T11:34:24.007Z,45.50
2019-03-23T11:36:54.396Z,45.60
2019-03-23T11:39:24.564Z,45.60
2019-03-23T11:41:54.551Z,45.90
2019-03-23T11:44:24.987Z,45.20
2019-03-23T11:46:55.155Z,44.30
2019-03-23T11:49:25.215Z,43.50
2019-03-23T11:51:55.238Z,42.70
2019-03-23T11:54:25.453Z,41.80
2019-03-23T11:56:56.353Z,40.60
2019-03-23T11:59:26.568Z,40.10
2019-03-23T12:01:56.660Z,39.50
2019-03-23T12:04:26.598Z,38.80
2019-03-23T12:07:03.893Z,38.20
2019-03-23T12:09:34.170Z,37.50
2019-03-23T12:12:04.305Z,37.10
2019-03-23T12:14:34.454Z,36.20
2019-03-23T12:17:04.554Z,35.70
2019-03-23T12:19:40.014Z,34.50
2019-03-23T12:22:08.324Z,34.00
2019-03-23T12:24:38.740Z,34.40
2019-03-23T12:27:09.344Z,33.20
2019-03-23T12:29:39.834Z,32.60
2019-03-23T12:32:10.818Z,32.20
2019-03-23T12:34:42.157Z,31.80
2019-03-23T12:37:12.316Z,31.50
2019-03-23T12:39:42.392Z,31.10
2019-03-23T12:42:16.076Z,30.60
2019-03-23T12:44:46.206Z,30.50
2019-03-23T12:47:16.370Z,30.20
2019-03-23T12:49:46.910Z,29.70
2019-03-23T12:52:17.319Z,29.30
2019-03-23T12:54:47.588Z,29.30
2019-03-23T12:57:18.094Z,29.40
2019-03-23T12:59:48.140Z,29.30
2019-03-23T13:02:18.345Z,29.40
2019-03-23T13:04:48.538Z,29.20
2019-03-23T13:07:19.056Z,29.10
2019-03-23T13:09:49.413Z,29.00
2019-03-23T13:12:19.818Z,28.60
2019-03-23T13:14:50.977Z,28.50
2019-03-23T13:17:22.824Z,29.00
2019-03-23T13:19:54.076Z,28.60
2019-03-23T13:22:24.408Z,28.60
2019-03-23T13:24:55.979Z,28.60
2019-03-23T13:27:32.217Z,28.60
2019-03-23T13:30:05.660Z,28.90
2019-03-23T13:32:39.591Z,29.00
2019-03-23T13:35:14.251Z,29.00
2019-03-23T13:37:54.775Z,28.90
2019-03-23T13:40:25.904Z,29.00
2019-03-23T13:42:58.062Z,29.00
2019-03-23T13:45:29.123Z,28.90
2019-03-23T13:48:08.117Z,29.10
2019-03-23T13:50:38.733Z,28.80
2019-03-23T13:53:08.697Z,29.00
2019-03-23T13:55:38.818Z,29.20
2019-03-23T13:58:12.959Z,29.30
2019-03-23T14:00:43.049Z,29.30
2019-03-23T14:03:13.019Z,29.10
2019-03-23T14:05:42.939Z,28.90
2019-03-23T14:08:12.913Z,29.30
2019-03-23T14:10:43.055Z,29.40
2019-03-23T14:13:13.937Z,29.30
2019-03-23T14:15:43.862Z,29.50
2019-03-23T14:18:13.756Z,29.60
2019-03-23T14:20:45.234Z,29.70
2019-03-23T14:23:15.408Z,29.90
2019-03-23T14:25:45.629Z,29.80
2019-03-23T14:28:17.580Z,29.40
2019-03-23T14:30:47.887Z,29.30
2019-03-23T14:33:18.043Z,29.40
2019-03-23T14:35:48.262Z,29.40
2019-03-23T14:38:18.660Z,29.50
2019-03-23T14:40:48.599Z,29.40
2019-03-23T14:43:18.487Z,29.40
2019-03-23T14:45:48.360Z,29.50
2019-03-23T14:48:18.226Z,29.70
2019-03-23T14:50:48.114Z,30.00
2019-03-23T14:53:20.638Z,30.40
2019-03-23T14:55:50.539Z,31.20
2019-03-23T14:58:20.382Z,31.90
2019-03-23T15:00:50.210Z,32.70
2019-03-23T15:03:22.794Z,33.20
2019-03-23T15:05:52.652Z,33.60
2019-03-23T15:08:22.604Z,33.70
2019-03-23T15:10:53.655Z,33.90
2019-03-23T15:13:23.653Z,34.00
2019-03-23T15:15:53.501Z,34.20
2019-03-23T15:18:23.390Z,34.40
2019-03-23T15:20:53.215Z,34.70
2019-03-23T15:23:23.200Z,35.00
2019-03-23T15:25:53.103Z,35.10
2019-03-23T15:28:22.988Z,35.40
2019-03-23T15:30:52.901Z,35.30
2019-03-23T15:33:22.851Z,35.50
2019-03-23T15:35:52.701Z,35.80
2019-03-23T15:38:22.614Z,35.90
2019-03-23T15:40:52.413Z,36.20
2019-03-23T15:43:22.422Z,36.50
2019-03-23T15:45:52.556Z,36.50
2019-03-23T15:48:22.602Z,36.40
2019-03-23T15:50:52.665Z,36.50
2019-03-23T15:53:27.855Z,37.40
2019-03-23T15:55:57.632Z,37.10
2019-03-23T15:58:27.662Z,37.20
2019-03-23T16:00:57.704Z,37.60
2019-03-23T16:03:27.560Z,37.90
2019-03-23T16:05:57.484Z,37.90
2019-03-23T16:08:27.317Z,38.00
2019-03-23T16:10:57.191Z,38.10
2019-03-23T16:13:27.225Z,38.40
2019-03-23T16:15:57.116Z,38.40
2019-03-23T16:18:26.997Z,38.30
2019-03-23T16:20:56.868Z,38.20
2019-03-23T16:23:26.720Z,38.20
2019-03-23T16:25:56.663Z,38.30
2019-03-23T16:28:26.600Z,38.30
2019-03-23T16:30:57.156Z,38.10
2019-03-23T16:33:27.076Z,38.10
2019-03-23T16:35:57.078Z,38.60
2019-03-23T16:38:27.008Z,38.10
2019-03-23T16:40:56.775Z,38.20
2019-03-23T16:43:26.663Z,38.40
2019-03-23T16:45:57.004Z,38.90
2019-03-23T16:48:28.893Z,39.40
2019-03-23T16:50:58.819Z,39.90
2019-03-23T16:53:28.646Z,40.60
2019-03-23T16:55:58.541Z,41.30
2019-03-23T16:58:28.523Z,41.90
2019-03-23T17:01:00.226Z,42.60
2019-03-23T17:03:30.199Z,44.00
2019-03-23T17:06:00.227Z,44.90
2019-03-23T17:08:30.147Z,46.00
2019-03-23T17:11:00.117Z,46.90
2019-03-23T17:13:29.931Z,47.70
2019-03-23T17:16:00.079Z,48.90
2019-03-23T17:18:30.207Z,49.00
2019-03-23T17:21:00.314Z,49.70
2019-03-23T17:23:42.063Z,50.00
2019-03-23T17:26:12.207Z,50.90
2019-03-23T17:28:42.439Z,51.00
2019-03-23T17:31:12.759Z,51.30
2019-03-23T17:33:43.149Z,51.60
2019-03-23T17:36:13.409Z,51.60
2019-03-23T17:38:43.434Z,52.00
2019-03-23T17:41:21.406Z,52.00
2019-03-23T17:43:52.860Z,52.10
2019-03-23T17:46:27.812Z,52.00
2019-03-23T17:48:58.029Z,52.20
2019-03-23T17:51:28.344Z,52.20
2019-03-23T17:53:59.099Z,52.30
2019-03-23T17:56:29.952Z,52.40
2019-03-23T17:59:01.598Z,52.30
2019-03-23T18:01:34.802Z,52.20
2019-03-23T18:04:09.557Z,52.00
2019-03-23T18:06:40.174Z,52.00
2019-03-23T18:09:10.697Z,52.00
2019-03-23T18:11:40.817Z,52.00
2019-03-23T18:14:12.724Z,52.40
2019-03-23T18:16:45.845Z,51.70
2019-03-23T18:19:22.716Z,51.70
2019-03-23T18:21:53.184Z,51.60
2019-03-23T18:24:44.502Z,51.40
2019-03-23T18:27:14.596Z,51.30
2019-03-23T18:29:47.592Z,51.10
2019-03-23T18:32:22.319Z,51.00
2019-03-23T18:34:57.332Z,50.90
2019-03-23T18:37:28.113Z,51.00
2019-03-23T18:39:58.781Z,51.00
2019-03-23T18:42:29.517Z,51.00
2019-03-23T18:45:02.455Z,51.00
2019-03-23T18:47:40.369Z,51.00
2019-03-23T18:50:12.935Z,51.10
2019-03-23T18:52:43.186Z,51.20
2019-03-23T18:55:19.812Z,51.20
2019-03-23T18:57:52.935Z,51.30
2019-03-23T19:00:36.295Z,51.40
2019-03-23T19:03:07.105Z,51.40
2019-03-23T19:05:42.265Z,51.60
2019-03-23T19:08:13.332Z,51.50
2019-03-23T19:10:47.635Z,51.60
2019-03-23T19:13:19.887Z,51.80
2019-03-23T19:15:51.593Z,51.80
2019-03-23T19:18:22.520Z,51.90
2019-03-23T19:20:54.227Z,52.10
2019-03-23T19:23:26.193Z,52.20
2019-03-23T19:25:56.745Z,52.40
2019-03-23T19:28:33.482Z,52.40
2019-03-23T19:31:09.343Z,52.60
2019-03-23T19:33:39.622Z,52.90
2019-03-23T19:36:09.527Z,52.70
2019-03-23T19:38:42.512Z,52.90
2019-03-23T19:41:28.731Z,52.90
2019-03-23T19:43:59.185Z,53.10
2019-03-23T19:46:29.640Z,53.10
2019-03-23T19:49:01.645Z,53.40
2019-03-23T19:51:34.508Z,53.40
2019-03-23T19:54:07.944Z,53.40
2019-03-23T19:56:44.210Z,53.50
2019-03-23T19:59:14.367Z,53.60
2019-03-23T20:02:15.578Z,53.70
2019-03-23T20:04:46.618Z,53.90
2019-03-23T20:07:18.237Z,54.00
2019-03-23T20:09:48.394Z,54.10
2019-03-23T20:12:25.757Z,54.20
2019-03-23T20:15:38.095Z,54.30
2019-03-23T20:18:19.798Z,54.40
2019-03-23T20:21:40.065Z,54.50
2019-03-23T20:24:14.339Z,54.60
2019-03-23T20:27:30.444Z,54.80
2019-03-23T20:30:01.999Z,55.40
2019-03-23T20:32:45.493Z,54.80
2019-03-23T20:35:16.353Z,55.10
2019-03-23T20:37:46.573Z,55.00
2019-03-23T20:40:16.795Z,55.30
2019-03-23T20:42:58.475Z,55.40
2019-03-23T20:45:32.443Z,55.40
2019-03-23T20:48:03.347Z,55.40
2019-03-23T20:50:40.354Z,55.40
2019-03-23T20:53:13.982Z,55.40
2019-03-23T20:55:46.071Z,55.70
2019-03-23T20:58:20.767Z,55.70
2019-03-23T21:00:55.007Z,55.70
2019-03-23T21:03:25.184Z,55.90
2019-03-23T21:05:55.197Z,55.90
2019-03-23T21:08:25.279Z,55.90
2019-03-23T21:10:59.231Z,55.90
2019-03-23T21:13:29.203Z,56.10
2019-03-23T21:15:59.272Z,56.10
2019-03-23T21:18:29.173Z,56.20
2019-03-23T21:20:59.183Z,56.30
2019-03-23T21:23:29.245Z,56.40
2019-03-23T21:26:00.580Z,56.40
2019-03-23T21:28:30.946Z,56.50
2019-03-23T21:31:01.050Z,56.50
2019-03-23T21:33:32.139Z,56.50
2019-03-23T21:36:03.172Z,56.50
2019-03-23T21:38:33.422Z,56.70
2019-03-23T21:41:03.408Z,56.70
2019-03-23T21:43:37.448Z,56.70
2019-03-23T21:46:11.206Z,56.90
2019-03-23T21:48:41.474Z,56.90
2019-03-23T21:51:11.657Z,57.10
2019-03-23T21:53:41.653Z,57.20
2019-03-23T21:56:11.508Z,57.20
2019-03-23T21:58:43.078Z,57.30
2019-03-23T22:01:13.034Z,57.30
2019-03-23T22:03:42.854Z,57.30
2019-03-23T22:06:12.808Z,57.30
2019-03-23T22:08:42.742Z,57.30
2019-03-23T22:11:12.579Z,57.30
2019-03-23T22:13:42.479Z,57.30
2019-03-23T22:16:12.475Z,57.20
2019-03-23T22:18:42.350Z,57.30
2019-03-23T22:21:12.229Z,57.30
2019-03-23T22:24:03.902Z,57.40
2019-03-23T22:26:50.601Z,57.50
2019-03-23T22:29:51.003Z,57.30
2019-03-23T22:32:20.932Z,57.20
2019-03-23T22:34:50.949Z,57.40
2019-03-23T22:37:20.944Z,57.30
2019-03-23T22:39:51.021Z,57.40
2019-03-23T22:42:21.167Z,57.40
2019-03-23T22:44:52.644Z,57.50
2019-03-23T22:47:23.072Z,57.60
2019-03-23T22:49:52.962Z,57.50
2019-03-23T22:52:22.905Z,57.70
2019-03-23T22:54:54.171Z,57.80
2019-03-23T22:57:24.532Z,57.90
2019-03-23T23:01:27.344Z,58.10
2019-03-23T23:04:43.709Z,58.10
2019-03-23T23:08:08.216Z,58.10
2019-03-23T23:11:30.725Z,58.10
2019-03-23T23:14:43.692Z,58.00
2019-03-23T23:17:14.322Z,57.90
2019-03-23T23:19:44.813Z,58.00
2019-03-23T23:22:15.017Z,58.00
2019-03-23T23:24:45.375Z,58.20
2019-03-23T23:27:15.766Z,58.30
2019-03-23T23:29:45.983Z,58.30
2019-03-23T23:32:16.262Z,58.30
2019-03-23T23:34:46.381Z,58.30
2019-03-23T23:37:16.720Z,58.40
2019-03-23T23:39:47.686Z,58.40
2019-03-23T23:42:18.294Z,58.50
2019-03-23T23:49:59.834Z,58.50
2019-03-23T23:53:47.659Z,58.40
2019-03-23T23:56:54.431Z,58.30
